Time;durP1;ratioP1;P1;durP2;ratioP2;P2;SDS_P1;SDS_P2;PMS_P1;PMS_P2;Temp;Humidity;BMP_temperature;BMP_pressure;BME280_temperature;BME280_humidity;BME280_pressure;Samples;Min_cycle;Max_cycle;Signal;HPM_P1;HPM_P2
2022/06/22 00:02:02;;;;;;;3.58;0.75;;;;;;;;;;5038401;28;20035;-89
2022/06/22 00:04:30;;;;;;;2.90;1.00;;;;;;;;;;5024113;28;20036;-90
2022/06/22 00:07:07;;;;;;;2.85;1.25;;;;;;;;;;5040650;28;20132;-87
2022/06/22 00:09:38;;;;;;;3.92;1.20;;;;;;;;;;5025746;28;20491;-90
2022/06/22 00:12:07;;;;;;;3.03;0.90;;;;;;;;;;5023692;28;20048;-88
2022/06/22 00:14:47;;;;;;;1.52;0.63;;;;;;;;;;5024058;28;20058;-88
2022/06/22 00:17:18;;;;;;;3.10;1.17;;;;;;;;;;5008073;28;20032;-89
2022/06/22 00:19:44;;;;;;;2.10;0.77;;;;;;;;;;5007414;28;20120;-89
2022/06/22 00:22:21;;;;;;;3.90;1.10;;;;;;;;;;5023634;28;20111;-89
2022/06/22 00:25:10;;;;;;;2.10;0.75;;;;;;;;;;5039968;28;20032;-87
2022/06/22 00:27:37;;;;;;;2.60;0.75;;;;;;;;;;5039756;28;20047;-88
2022/06/22 00:30:13;;;;;;;2.10;0.90;;;;;;;;;;5023475;28;20033;-89
2022/06/22 00:32:57;;;;;;;1.90;0.75;;;;;;;;;;5040216;28;20056;-89
2022/06/22 00:35:42;;;;;;;3.67;1.10;;;;;;;;;;5039915;28;20032;-89
2022/06/22 00:38:27;;;;;;;1.38;0.85;;;;;;;;;;5039350;28;20410;-89
2022/06/22 00:40:56;;;;;;;3.92;0.93;;;;;;;;;;5023923;28;20040;-88
2022/06/22 00:43:22;;;;;;;3.72;0.73;;;;;;;;;;5023042;28;20035;-89
2022/06/22 00:45:49;;;;;;;3.17;0.95;;;;;;;;;;5023172;28;20502;-89
2022/06/22 00:48:23;;;;;;;3.03;0.85;;;;;;;;;;5039796;28;20047;-89
2022/06/22 00:50:56;;;;;;;2.00;0.75;;;;;;;;;;5039299;28;20040;-89
2022/06/22 00:53:24;;;;;;;2.33;0.88;;;;;;;;;;5039658;28;20121;-89
2022/06/22 00:56:33;;;;;;;3.22;0.95;;;;;;;;;;5023412;28;20041;-89
2022/06/22 00:59:04;;;;;;;1.67;0.75;;;;;;;;;;5038682;28;20517;-88
2022/06/22 01:01:37;;;;;;;4.07;1.35;;;;;;;;;;5028888;28;20035;-88
2022/06/22 01:04:10;;;;;;;2.08;1.38;;;;;;;;;;5079486;28;20085;-89
2022/06/22 01:06:49;;;;;;;2.53;1.00;;;;;;;;;;5062565;28;20409;-89
2022/06/22 01:09:24;;;;;;;4.05;1.13;;;;;;;;;;5062500;28;20027;-89
2022/06/22 01:12:16;;;;;;;3.08;0.93;;;;;;;;;;5078988;28;20489;-89
2022/06/22 01:14:53;;;;;;;3.20;1.25;;;;;;;;;;5048338;28;20027;-88
2022/06/22 01:17:28;;;;;;;2.95;1.00;;;;;;;;;;5079179;28;20036;-89
2022/06/22 01:20:20;;;;;;;2.25;0.90;;;;;;;;;;5062909;28;20032;-89
2022/06/22 01:23:01;;;;;;;2.05;1.17;;;;;;;;;;5064916;28;20028;-89
2022/06/22 01:25:49;;;;;;;2.30;0.90;;;;;;;;;;5062570;28;20031;-89
2022/06/22 01:28:17;;;;;;;2.65;1.02;;;;;;;;;;5058709;28;20063;-89
2022/06/22 01:30:51;;;;;;;2.90;0.82;;;;;;;;;;5042208;28;20121;-89
2022/06/22 01:33:45;;;;;;;3.78;1.20;;;;;;;;;;5042407;28;20118;-89
2022/06/22 01:36:32;;;;;;;2.40;0.90;;;;;;;;;;5027287;28;20047;-89
2022/06/22 01:38:58;;;;;;;2.53;1.13;;;;;;;;;;5041994;28;20040;-89
2022/06/22 01:41:37;;;;;;;5.18;1.13;;;;;;;;;;5025276;28;20066;-88
2022/06/22 01:44:36;;;;;;;2.42;1.13;;;;;;;;;;5026130;28;20024;-88
2022/06/22 01:47:22;;;;;;;2.22;0.98;;;;;;;;;;5039062;28;20075;-89
2022/06/22 01:50:05;;;;;;;2.53;1.08;;;;;;;;;;5041724;28;20071;-89
2022/06/22 01:52:49;;;;;;;;;;;;;;;;;;5042291;28;20035;-89
2022/06/22 01:55:25;;;;;;;2.55;1.00;;;;;;;;;;5058216;28;19916;-89
2022/06/22 01:58:15;;;;;;;3.70;1.50;;;;;;;;;;5058917;28;20116;-89
2022/06/22 02:01:14;;;;;;;4.03;1.13;;;;;;;;;;5044967;28;20127;-89
2022/06/22 02:03:53;;;;;;;2.58;1.15;;;;;;;;;;5035086;28;20044;-89
2022/06/22 02:09:13;;;;;;;3.67;1.17;;;;;;;;;;5074886;28;20038;-89
2022/06/22 02:11:47;;;;;;;3.97;1.13;;;;;;;;;;5042235;28;20036;-89
2022/06/22 02:14:16;;;;;;;2.85;1.30;;;;;;;;;;5029916;28;20031;-89
2022/06/22 02:16:47;;;;;;;2.42;1.15;;;;;;;;;;5029647;28;20040;-89
2022/06/22 02:19:15;;;;;;;4.03;1.15;;;;;;;;;;5045350;28;20043;-89
2022/06/22 02:21:45;;;;;;;5.57;1.50;;;;;;;;;;5029101;28;20048;-90
2022/06/22 02:24:20;;;;;;;3.25;1.50;;;;;;;;;;5045509;28;20047;-88
2022/06/22 02:26:51;;;;;;;3.78;1.55;;;;;;;;;;5045708;28;20039;-88
2022/06/22 02:29:20;;;;;;;2.97;1.42;;;;;;;;;;5045434;28;20035;-88
2022/06/22 02:31:51;;;;;;;3.47;1.05;;;;;;;;;;5046088;28;20100;-88
2022/06/22 02:34:17;;;;;;;5.43;1.40;;;;;;;;;;5045728;28;20081;-89
2022/06/22 02:36:45;;;;;;;2.90;1.00;;;;;;;;;;5029262;28;20055;-89
2022/06/22 02:39:11;;;;;;;3.47;1.20;;;;;;;;;;5028955;28;20115;-89
2022/06/22 02:44:33;;;;;;;3.35;1.27;;;;;;;;;;5050006;28;20023;-88
2022/06/22 02:47:18;;;;;;;2.97;1.23;;;;;;;;;;5029463;28;20032;-88
2022/06/22 02:50:05;;;;;;;2.90;0.90;;;;;;;;;;5061651;28;20074;-88
2022/06/22 02:52:37;;;;;;;4.03;1.35;;;;;;;;;;5045139;28;20046;-88
2022/06/22 02:55:03;;;;;;;3.03;1.20;;;;;;;;;;5028354;28;20026;-88
2022/06/22 02:57:58;;;;;;;3.92;1.17;;;;;;;;;;5061434;28;20036;-90
2022/06/22 03:00:30;;;;;;;3.10;1.30;;;;;;;;;;5057298;28;20502;-89
2022/06/22 03:03:05;;;;;;;2.78;1.13;;;;;;;;;;5028427;28;20032;-89
2022/06/22 03:05:32;;;;;;;2.88;0.95;;;;;;;;;;5045241;28;20413;-89
2022/06/22 03:07:58;;;;;;;2.90;0.88;;;;;;;;;;5028586;28;20043;-88
2022/06/22 03:10:30;;;;;;;2.67;1.10;;;;;;;;;;5028087;28;20027;-88
2022/06/22 03:13:01;;;;;;;4.87;1.37;;;;;;;;;;5028348;28;20036;-88
2022/06/22 03:15:32;;;;;;;3.75;1.27;;;;;;;;;;5028432;28;20081;-89
2022/06/22 03:17:57;;;;;;;5.38;1.63;;;;;;;;;;5044170;28;20043;-89
2022/06/22 03:20:26;;;;;;;4.00;1.58;;;;;;;;;;5028358;28;20410;-89
2022/06/22 03:22:55;;;;;;;5.10;1.15;;;;;;;;;;5028350;28;20028;-88
2022/06/22 03:25:40;;;;;;;2.83;1.25;;;;;;;;;;5044381;28;20375;-88
2022/06/22 03:28:16;;;;;;;2.58;1.10;;;;;;;;;;5028201;28;20035;-90
2022/06/22 03:30:47;;;;;;;2.55;1.23;;;;;;;;;;5044875;28;20043;-90
2022/06/22 03:33:26;;;;;;;4.07;1.40;;;;;;;;;;5028435;28;20036;-90
2022/06/22 03:35:55;;;;;;;2.58;1.35;;;;;;;;;;5028343;28;20234;-89
2022/06/22 03:38:34;;;;;;;4.13;0.80;;;;;;;;;;5027988;28;20028;-89
2022/06/22 03:41:05;;;;;;;2.05;1.02;;;;;;;;;;5044650;28;20040;-90
2022/06/22 03:43:57;;;;;;;3.55;1.30;;;;;;;;;;5028214;28;20040;-90
2022/06/22 03:46:25;;;;;;;3.92;1.55;;;;;;;;;;5028147;28;20131;-90
2022/06/22 03:49:02;;;;;;;4.72;1.88;;;;;;;;;;5077304;28;20510;-89
2022/06/22 03:51:37;;;;;;;3.47;1.27;;;;;;;;;;5028234;28;20036;-89
2022/06/22 03:54:09;;;;;;;2.33;1.08;;;;;;;;;;5060490;28;20032;-88
2022/06/22 03:56:37;;;;;;;2.60;1.10;;;;;;;;;;5028368;28;20028;-89
2022/06/22 03:59:03;;;;;;;1.98;0.93;;;;;;;;;;5027407;28;20032;-89
2022/06/22 04:01:28;;;;;;;4.25;1.20;;;;;;;;;;5027505;28;20039;-89
2022/06/22 04:03:55;;;;;;;3.10;1.20;;;;;;;;;;5027346;28;20036;-89
2022/06/22 04:06:40;;;;;;;3.45;1.35;;;;;;;;;;5027476;28;20175;-89
2022/06/22 04:09:14;;;;;;;7.93;1.45;;;;;;;;;;5045565;28;20430;-89
2022/06/22 04:11:54;;;;;;;3.58;1.17;;;;;;;;;;5027611;28;20059;-89
2022/06/22 04:14:53;;;;;;;2.95;1.33;;;;;;;;;;5043404;28;20043;-89
2022/06/22 04:17:24;;;;;;;3.47;1.50;;;;;;;;;;5059967;28;20123;-88
2022/06/22 04:20:18;;;;;;;3.55;1.38;;;;;;;;;;5043272;28;20035;-88
2022/06/22 04:22:49;;;;;;;2.75;1.15;;;;;;;;;;5043171;28;20402;-89
2022/06/22 04:25:15;;;;;;;3.67;1.77;;;;;;;;;;5026639;28;20141;-88
2022/06/22 04:27:44;;;;;;;4.22;1.25;;;;;;;;;;5059835;28;20043;-88
2022/06/22 04:30:18;;;;;;;3.55;1.42;;;;;;;;;;5042973;28;20028;-89
2022/06/22 04:33:20;;;;;;;2.63;1.02;;;;;;;;;;5060038;28;20039;-89
2022/06/22 04:36:00;;;;;;;;;;;;;;;;;;5045493;28;20036;-89
2022/06/22 04:38:49;;;;;;;2.78;1.13;;;;;;;;;;5043296;28;19908;-89
2022/06/22 04:41:29;;;;;;;1.80;0.80;;;;;;;;;;5027630;28;20036;-89
2022/06/22 04:44:00;;;;;;;4.35;1.33;;;;;;;;;;5042985;28;20047;-90
2022/06/22 04:46:30;;;;;;;2.63;1.10;;;;;;;;;;5026728;28;20032;-90
2022/06/22 04:49:01;;;;;;;2.35;0.88;;;;;;;;;;5042888;28;20031;-90
2022/06/22 04:51:32;;;;;;;1.80;0.93;;;;;;;;;;5027149;28;20406;-89
2022/06/22 04:54:06;;;;;;;2.50;0.77;;;;;;;;;;5027426;28;20036;-90
2022/06/22 04:56:35;;;;;;;2.90;1.25;;;;;;;;;;5043008;28;20127;-90
2022/06/22 04:59:02;;;;;;;3.38;1.52;;;;;;;;;;5026207;28;20040;-90
2022/06/22 05:01:35;;;;;;;4.93;1.35;;;;;;;;;;5026131;28;20032;-89
2022/06/22 05:04:09;;;;;;;2.00;0.80;;;;;;;;;;5026742;28;20034;-87
2022/06/22 05:06:46;;;;;;;2.47;1.00;;;;;;;;;;5059491;28;20111;-89
2022/06/22 05:09:52;;;;;;;3.22;1.20;;;;;;;;;;5026457;28;20052;-80
2022/06/22 05:12:25;;;;;;;3.30;1.05;;;;;;;;;;5073482;28;20048;-80
2022/06/22 05:14:53;;;;;;;3.58;0.90;;;;;;;;;;5025481;28;20122;-81
2022/06/22 05:17:27;;;;;;;2.30;1.20;;;;;;;;;;5041422;28;20116;-80
2022/06/22 05:20:27;;;;;;;2.55;0.90;;;;;;;;;;5059050;28;20040;-82
2022/06/22 05:22:54;;;;;;;1.75;1.00;;;;;;;;;;5074471;28;20036;-81
2022/06/22 05:25:19;;;;;;;5.07;1.35;;;;;;;;;;5040718;28;20035;-81
2022/06/22 05:28:07;;;;;;;4.18;1.15;;;;;;;;;;5049400;28;20045;-82
2022/06/22 05:30:39;;;;;;;3.90;1.60;;;;;;;;;;5036894;28;20032;-81
2022/06/22 05:33:08;;;;;;;3.50;1.08;;;;;;;;;;5037949;28;20035;-81
2022/06/22 05:35:36;;;;;;;3.45;1.05;;;;;;;;;;5021449;28;20033;-91
2022/06/22 05:38:03;;;;;;;4.10;1.00;;;;;;;;;;5022268;28;20039;-89
2022/06/22 05:40:30;;;;;;;4.80;2.25;;;;;;;;;;5038481;28;20044;-89
2022/06/22 05:42:57;;;;;;;6.13;1.65;;;;;;;;;;5025476;28;20028;-88
2022/06/22 05:45:33;;;;;;;6.50;2.63;;;;;;;;;;5041754;28;20047;-88
2022/06/22 05:47:58;;;;;;;9.13;2.60;;;;;;;;;;5024987;28;20073;-86
2022/06/22 05:50:34;;;;;;;5.25;2.30;;;;;;;;;;5024790;28;20031;-88
2022/06/22 05:53:23;;;;;;;6.15;2.63;;;;;;;;;;5022929;28;20024;-85
2022/06/22 05:55:55;;;;;;;7.88;3.50;;;;;;;;;;5025362;28;20036;-85
2022/06/22 05:58:43;;;;;;;12.65;2.95;;;;;;;;;;5057623;28;20062;-85
2022/06/22 06:01:33;;;;;;;7.93;2.95;;;;;;;;;;5042630;28;20493;-85
2022/06/22 06:04:33;;;;;;;8.90;2.78;;;;;;;;;;5037698;28;20495;-85
2022/06/22 06:07:05;;;;;;;6.93;2.35;;;;;;;;;;4996119;28;20047;-86
2022/06/22 06:09:31;;;;;;;8.98;2.83;;;;;;;;;;5038326;28;20078;-85
2022/06/22 06:12:09;;;;;;;10.75;2.65;;;;;;;;;;5004885;28;20040;-85
2022/06/22 06:14:41;;;;;;;6.93;2.13;;;;;;;;;;5037535;28;20040;-86
2022/06/22 06:17:41;;;;;;;8.87;1.80;;;;;;;;;;5037982;28;20086;-86
2022/06/22 06:20:08;;;;;;;8.15;2.28;;;;;;;;;;5039270;28;20064;-86
2022/06/22 06:22:36;;;;;;;5.82;1.75;;;;;;;;;;5021243;28;20048;-87
2022/06/22 06:27:54;;;;;;;6.03;2.00;;;;;;;;;;5039760;28;20388;-87
2022/06/22 06:30:49;;;;;;;5.95;1.40;;;;;;;;;;5037490;28;20074;-84
2022/06/22 06:33:18;;;;;;;7.00;2.15;;;;;;;;;;5018096;28;20040;-85
2022/06/22 06:36:01;;;;;;;7.15;1.88;;;;;;;;;;5037886;28;20179;-87
2022/06/22 06:38:30;;;;;;;5.35;1.75;;;;;;;;;;5053408;28;20051;-85
2022/06/22 06:41:33;;;;;;;3.65;1.63;;;;;;;;;;5024597;28;20038;-84
2022/06/22 06:44:16;;;;;;;3.97;1.15;;;;;;;;;;5026991;28;20146;-84
2022/06/22 06:46:45;;;;;;;3.83;2.05;;;;;;;;;;5024363;28;20088;-84
2022/06/22 06:49:14;;;;;;;4.75;1.60;;;;;;;;;;5057281;28;20047;-85
2022/06/22 06:51:43;;;;;;;4.03;1.30;;;;;;;;;;5027308;28;20028;-84
2022/06/22 06:54:17;;;;;;;3.90;1.50;;;;;;;;;;5061239;28;20035;-85
2022/06/22 06:56:49;;;;;;;3.58;1.20;;;;;;;;;;5060406;28;20525;-84
2022/06/22 06:59:19;;;;;;;4.53;1.52;;;;;;;;;;5063273;28;20038;-84
2022/06/22 07:01:47;;;;;;;3.60;1.15;;;;;;;;;;5064369;28;20554;-85
2022/06/22 07:04:21;;;;;;;4.43;1.70;;;;;;;;;;5064231;28;20031;-85
2022/06/22 07:06:47;;;;;;;10.20;1.92;;;;;;;;;;5064173;28;20054;-87
2022/06/22 07:09:22;;;;;;;8.57;2.13;;;;;;;;;;5047889;28;20108;-87
2022/06/22 07:11:53;;;;;;;3.30;1.20;;;;;;;;;;5064620;28;20046;-87
2022/06/22 07:14:23;;;;;;;4.55;1.45;;;;;;;;;;5040817;28;20034;-88
2022/06/22 07:16:50;;;;;;;4.93;1.50;;;;;;;;;;5058065;28;20071;-88
2022/06/22 07:19:25;;;;;;;4.70;1.88;;;;;;;;;;5024696;28;20508;-89
2022/06/22 07:22:01;;;;;;;3.80;1.45;;;;;;;;;;5024925;28;20027;-90
2022/06/22 07:24:33;;;;;;;4.68;1.27;;;;;;;;;;5024715;28;20514;-89
2022/06/22 07:27:35;;;;;;;3.72;1.20;;;;;;;;;;5041192;28;20567;-90
2022/06/22 07:30:25;;;;;;;3.85;1.55;;;;;;;;;;5040886;28;20037;-89
2022/06/22 07:33:02;;;;;;;3.47;1.38;;;;;;;;;;5027244;28;20052;-89
2022/06/22 07:35:42;;;;;;;3.92;1.27;;;;;;;;;;5041068;28;20041;-89
2022/06/22 07:38:24;;;;;;;4.43;1.48;;;;;;;;;;5040619;28;20027;-89
2022/06/22 07:43:37;;;;;;;7.80;1.85;;;;;;;;;;5063532;28;20044;-89
2022/06/22 07:46:04;;;;;;;8.30;2.03;;;;;;;;;;5027862;28;20398;-89
2022/06/22 07:48:35;;;;;;;7.10;1.80;;;;;;;;;;5027780;28;20379;-90
2022/06/22 07:51:03;;;;;;;5.40;1.42;;;;;;;;;;5027775;28;20036;-84
2022/06/22 07:53:37;;;;;;;9.00;1.77;;;;;;;;;;5007218;28;20028;-86
2022/06/22 07:56:04;;;;;;;4.88;1.60;;;;;;;;;;5023944;28;20127;-91
2022/06/22 07:58:36;;;;;;;8.00;1.55;;;;;;;;;;5040602;28;20033;-90
2022/06/22 08:01:11;;;;;;;5.70;1.60;;;;;;;;;;5025066;28;20118;-88
2022/06/22 08:03:49;;;;;;;9.02;1.55;;;;;;;;;;5028010;28;20498;-87
2022/06/22 08:06:20;;;;;;;4.93;2.25;;;;;;;;;;5043552;28;20028;-88
2022/06/22 08:08:53;;;;;;;3.38;1.80;;;;;;;;;;5027305;28;20020;-87
2022/06/22 08:11:32;;;;;;;4.22;1.50;;;;;;;;;;5059443;28;20058;-87
2022/06/22 08:14:21;;;;;;;3.47;1.15;;;;;;;;;;5060653;28;20588;-87
2022/06/22 08:16:51;;;;;;;4.63;1.30;;;;;;;;;;5027460;28;20043;-90
2022/06/22 08:19:19;;;;;;;5.00;1.05;;;;;;;;;;5043757;28;20051;-88
2022/06/22 08:21:48;;;;;;;2.78;1.00;;;;;;;;;;5043246;28;20042;-87
2022/06/22 08:24:18;;;;;;;6.70;1.92;;;;;;;;;;5060043;28;20024;-88
2022/06/22 08:26:47;;;;;;;4.32;1.23;;;;;;;;;;5043082;28;20043;-87
2022/06/22 08:29:16;;;;;;;2.55;1.00;;;;;;;;;;5042868;28;20502;-89
2022/06/22 08:31:51;;;;;;;4.38;1.20;;;;;;;;;;5026537;28;20158;-87
2022/06/22 08:34:31;;;;;;;4.47;1.30;;;;;;;;;;5044148;28;20032;-88
2022/06/22 08:37:05;;;;;;;5.90;1.45;;;;;;;;;;5042780;28;20067;-89
2022/06/22 08:39:38;;;;;;;6.65;1.80;;;;;;;;;;5040842;28;20078;-90
2022/06/22 08:42:28;;;;;;;3.45;1.40;;;;;;;;;;5053190;28;20040;-90
2022/06/22 08:45:12;;;;;;;7.35;1.77;;;;;;;;;;5060111;28;20059;-90
2022/06/22 08:47:59;;;;;;;5.10;1.33;;;;;;;;;;5059572;28;20085;-90
2022/06/22 08:51:03;;;;;;;4.07;1.20;;;;;;;;;;5045592;28;20036;-90
2022/06/22 08:54:13;;;;;;;4.85;1.33;;;;;;;;;;5055744;28;20094;-89
2022/06/22 08:57:14;;;;;;;5.57;2.03;;;;;;;;;;5035081;28;20043;-88
2022/06/22 09:00:05;;;;;;;3.08;1.10;;;;;;;;;;5011189;28;20110;-90
2022/06/22 09:02:51;;;;;;;3.05;1.02;;;;;;;;;;5008008;28;20032;-90
2022/06/22 09:05:33;;;;;;;4.43;1.77;;;;;;;;;;5039776;28;20503;-90
2022/06/22 09:08:39;;;;;;;4.07;1.77;;;;;;;;;;5039810;28;20070;-91
2022/06/22 09:11:30;;;;;;;6.78;1.33;;;;;;;;;;5039207;28;20421;-90
2022/06/22 09:14:07;;;;;;;2.83;1.10;;;;;;;;;;5039796;28;20036;-90
2022/06/22 09:16:51;;;;;;;5.22;1.40;;;;;;;;;;5041157;28;20033;-89
2022/06/22 09:19:31;;;;;;;5.82;1.30;;;;;;;;;;5039618;28;20025;-91
2022/06/22 09:22:01;;;;;;;4.82;1.50;;;;;;;;;;5007763;28;20072;-92
2022/06/22 09:24:45;;;;;;;8.18;1.75;;;;;;;;;;5039527;28;20119;-91
2022/06/22 09:27:17;;;;;;;4.38;1.50;;;;;;;;;;5007279;28;20033;-91
2022/06/22 09:30:10;;;;;;;5.60;1.52;;;;;;;;;;5040377;28;20518;-91
2022/06/22 09:32:57;;;;;;;2.80;1.48;;;;;;;;;;4942608;28;20047;-91
2022/06/22 09:35:44;;;;;;;4.45;1.25;;;;;;;;;;5040326;28;20123;-90
2022/06/22 09:38:27;;;;;;;5.80;1.00;;;;;;;;;;5039123;28;20033;-88
2022/06/22 09:41:18;;;;;;;3.00;1.27;;;;;;;;;;5038255;28;20089;-89
2022/06/22 09:44:05;;;;;;;2.55;0.85;;;;;;;;;;5024983;28;20068;-88
2022/06/22 09:47:03;;;;;;;3.25;0.80;;;;;;;;;;5038366;28;20056;-89
2022/06/22 09:50:01;;;;;;;2.28;0.77;;;;;;;;;;5038203;28;20041;-88
2022/06/22 09:53:00;;;;;;;2.38;0.98;;;;;;;;;;5040840;28;20040;-88
2022/06/22 09:58:35;;;;;;;5.33;1.27;;;;;;;;;;5044884;28;20132;-88
2022/06/22 10:01:25;;;;;;;2.65;0.75;;;;;;;;;;5038527;28;20032;-89
2022/06/22 10:04:03;;;;;;;2.80;0.80;;;;;;;;;;5038001;28;20028;-87
2022/06/22 10:06:53;;;;;;;1.13;0.60;;;;;;;;;;5038126;28;20040;-88
2022/06/22 10:09:37;;;;;;;2.65;1.20;;;;;;;;;;5038261;28;20078;-88
2022/06/22 10:12:22;;;;;;;3.40;1.23;;;;;;;;;;5055020;28;20070;-89
2022/06/22 10:15:27;;;;;;;2.13;0.93;;;;;;;;;;5038081;28;20127;-89
2022/06/22 10:18:14;;;;;;;2.00;0.80;;;;;;;;;;5038097;28;20543;-89
2022/06/22 10:21:00;;;;;;;1.60;0.80;;;;;;;;;;5038246;28;20029;-88
2022/06/22 10:23:41;;;;;;;2.92;1.27;;;;;;;;;;5006183;28;20029;-88
2022/06/22 10:26:19;;;;;;;2.47;0.70;;;;;;;;;;5038902;28;20035;-89
2022/06/22 10:29:01;;;;;;;5.07;0.80;;;;;;;;;;5037796;28;20056;-88
2022/06/22 10:32:08;;;;;;;2.08;0.70;;;;;;;;;;5037693;28;20032;-87
2022/06/22 10:35:11;;;;;;;1.70;0.63;;;;;;;;;;5027178;28;20033;-87
2022/06/22 10:37:43;;;;;;;2.85;1.08;;;;;;;;;;5041759;28;20124;-88
2022/06/22 10:46:14;;;;;;;3.33;0.90;;;;;;;;;;5043944;28;20033;-86
2022/06/22 10:48:48;;;;;;;2.35;1.10;;;;;;;;;;5025805;28;20063;-89
2022/06/22 10:51:55;;;;;;;7.38;1.50;;;;;;;;;;5057258;28;20040;-90
2022/06/22 10:54:26;;;;;;;5.38;1.48;;;;;;;;;;5029852;28;20119;-90
2022/06/22 10:57:08;;;;;;;5.93;1.30;;;;;;;;;;5041683;28;20064;-90
2022/06/22 11:00:10;;;;;;;4.40;1.50;;;;;;;;;;5041619;28;20072;-89
2022/06/22 11:02:45;;;;;;;5.55;1.63;;;;;;;;;;5025879;28;20394;-90
2022/06/22 11:05:23;;;;;;;3.33;1.38;;;;;;;;;;5041788;28;20054;-90
2022/06/22 11:08:16;;;;;;;3.60;1.55;;;;;;;;;;5058102;28;20036;-90
2022/06/22 11:11:01;;;;;;;3.75;1.30;;;;;;;;;;5058107;28;20033;-89
2022/06/22 11:14:04;;;;;;;6.72;1.40;;;;;;;;;;5041726;28;20064;-90
2022/06/22 11:16:58;;;;;;;2.63;1.02;;;;;;;;;;5057796;28;20032;-90
2022/06/22 11:19:59;;;;;;;3.95;1.58;;;;;;;;;;5058288;28;20032;-88
2022/06/22 11:22:32;;;;;;;4.80;1.23;;;;;;;;;;5027322;28;20525;-89
2022/06/22 11:25:18;;;;;;;5.80;1.45;;;;;;;;;;5043732;28;20056;-90
2022/06/22 11:30:53;;;;;;;4.03;1.23;;;;;;;;;;5063132;28;20066;-89
2022/06/22 11:33:29;;;;;;;4.38;1.52;;;;;;;;;;5060885;28;20028;-89
2022/06/22 11:35:57;;;;;;;3.30;1.23;;;;;;;;;;5061434;28;20093;-90
2022/06/22 11:38:31;;;;;;;2.88;1.33;;;;;;;;;;5061081;28;20024;-89
2022/06/22 11:41:18;;;;;;;5.72;1.58;;;;;;;;;;5060871;28;20046;-89
2022/06/22 11:44:11;;;;;;;1.98;0.90;;;;;;;;;;5076821;28;20126;-90
2022/06/22 11:46:45;;;;;;;2.97;1.00;;;;;;;;;;5043979;28;20036;-90
2022/06/22 11:49:35;;;;;;;3.72;1.10;;;;;;;;;;5028196;28;20024;-90
2022/06/22 11:52:19;;;;;;;3.42;1.08;;;;;;;;;;5040321;28;20037;-90
2022/06/22 11:55:17;;;;;;;3.30;1.33;;;;;;;;;;5040291;28;20074;-91
2022/06/22 11:58:00;;;;;;;13.32;8.95;;;;;;;;;;5023837;28;20047;-88
2022/06/22 12:00:45;;;;;;;56.72;34.75;;;;;;;;;;5040409;28;20024;-90
2022/06/22 12:03:37;;;;;;;39.15;24.73;;;;;;;;;;5040862;28;20035;-88
2022/06/22 12:06:30;;;;;;;35.53;20.38;;;;;;;;;;5040632;28;20123;-90
2022/06/22 12:09:07;;;;;;;11.77;6.82;;;;;;;;;;5042731;28;20048;-89
2022/06/22 12:11:32;;;;;;;6.60;2.95;;;;;;;;;;5040554;28;20024;-88
2022/06/22 12:17:30;;;;;;;3.58;1.38;;;;;;;;;;5057607;28;20142;-90
2022/06/22 12:20:25;;;;;;;4.32;1.40;;;;;;;;;;5023812;28;20032;-89
2022/06/22 12:23:18;;;;;;;6.20;1.67;;;;;;;;;;5040056;28;20048;-90
2022/06/22 12:26:03;;;;;;;4.00;1.58;;;;;;;;;;5040173;28;20037;-88
2022/06/22 12:28:45;;;;;;;4.85;1.30;;;;;;;;;;5039865;28;20032;-90
2022/06/22 12:31:17;;;;;;;3.33;1.17;;;;;;;;;;5023840;28;20135;-90
2022/06/22 12:34:13;;;;;;;3.10;0.90;;;;;;;;;;5023382;28;20029;-90
2022/06/22 12:36:42;;;;;;;3.75;1.08;;;;;;;;;;5025834;28;20044;-89
2022/06/22 12:39:16;;;;;;;4.35;1.13;;;;;;;;;;5023993;28;20038;-90
2022/06/22 12:42:14;;;;;;;4.05;1.23;;;;;;;;;;5033452;28;20414;-92
2022/06/22 12:44:53;;;;;;;5.93;1.42;;;;;;;;;;5059807;28;20036;-90
2022/06/22 12:47:52;;;;;;;2.83;1.30;;;;;;;;;;5043347;28;20090;-91
2022/06/22 12:50:38;;;;;;;3.05;0.95;;;;;;;;;;5059846;28;20039;-90
2022/06/22 12:53:09;;;;;;;2.67;1.02;;;;;;;;;;5029893;28;20514;-92
2022/06/22 12:55:40;;;;;;;3.33;0.90;;;;;;;;;;5022957;28;20024;-92
2022/06/22 12:58:23;;;;;;;2.05;1.10;;;;;;;;;;5007364;28;20123;-90
2022/06/22 13:00:49;;;;;;;;;;;;;;;;;;5048483;28;20040;-91
2022/06/22 13:03:20;;;;;;;4.72;1.10;;;;;;;;;;5039473;28;20420;-91
2022/06/22 13:05:49;;;;;;;3.37;1.00;;;;;;;;;;5039771;28;20051;-91
2022/06/22 13:08:25;;;;;;;3.17;1.30;;;;;;;;;;5039265;28;20360;-91
2022/06/22 13:11:03;;;;;;;4.32;1.10;;;;;;;;;;5039535;28;20486;-91
2022/06/22 13:13:50;;;;;;;1.80;0.90;;;;;;;;;;5039488;28;20522;-90
2022/06/22 13:16:24;;;;;;;2.50;0.85;;;;;;;;;;5022928;28;20091;-91
2022/06/22 13:19:05;;;;;;;1.70;0.77;;;;;;;;;;5039039;28;20066;-91
2022/06/22 13:22:04;;;;;;;2.77;0.97;;;;;;;;;;5023956;28;20044;-91
2022/06/22 13:25:01;;;;;;;2.63;0.98;;;;;;;;;;5022441;28;20502;-91
2022/06/22 13:27:48;;;;;;;6.05;1.15;;;;;;;;;;5038953;28;20040;-92
2022/06/22 13:30:42;;;;;;;3.60;1.00;;;;;;;;;;5038885;28;20406;-92
2022/06/22 13:33:34;;;;;;;4.35;0.80;;;;;;;;;;5022088;28;20044;-91
2022/06/22 13:36:20;;;;;;;2.08;1.10;;;;;;;;;;5023251;28;20122;-94
2022/06/22 13:38:50;;;;;;;4.35;1.52;;;;;;;;;;5038855;28;20485;-91
2022/06/22 13:41:44;;;;;;;1.90;0.80;;;;;;;;;;5045198;28;20032;-92
2022/06/22 13:44:34;;;;;;;4.53;1.10;;;;;;;;;;5042902;28;20040;-91
2022/06/22 13:47:17;;;;;;;3.22;1.10;;;;;;;;;;5042037;28;20039;-90
2022/06/22 13:50:32;;;;;;;4.85;1.17;;;;;;;;;;5042141;28;20399;-92
2022/06/22 13:53:04;;;;;;;5.32;1.30;;;;;;;;;;4943460;28;20042;-90
2022/06/22 13:55:39;;;;;;;3.97;1.23;;;;;;;;;;5033013;28;20047;-92
2022/06/22 13:58:32;;;;;;;4.63;1.33;;;;;;;;;;5038709;28;20044;-91
2022/06/22 14:01:06;;;;;;;5.57;1.20;;;;;;;;;;5022327;28;20114;-86
2022/06/22 14:03:43;;;;;;;3.20;1.38;;;;;;;;;;5005311;28;20410;-87
2022/06/22 14:06:24;;;;;;;5.50;1.73;;;;;;;;;;5027296;28;20135;-88
2022/06/22 14:08:55;;;;;;;2.50;1.13;;;;;;;;;;5036849;28;20040;-87
2022/06/22 14:11:44;;;;;;;3.90;1.10;;;;;;;;;;5037956;28;20028;-86
2022/06/22 14:14:20;;;;;;;4.03;1.33;;;;;;;;;;5037060;28;20044;-84
2022/06/22 14:16:55;;;;;;;4.28;1.52;;;;;;;;;;5036971;28;20040;-84
2022/06/22 14:19:46;;;;;;;3.45;1.55;;;;;;;;;;5053313;28;20032;-83
2022/06/22 14:22:29;;;;;;;5.40;1.73;;;;;;;;;;5053465;28;20066;-84
2022/06/22 14:24:57;;;;;;;6.18;1.50;;;;;;;;;;5020260;28;20036;-84
2022/06/22 14:27:28;;;;;;;2.80;1.10;;;;;;;;;;5020361;28;20441;-85
2022/06/22 14:29:57;;;;;;;5.70;1.35;;;;;;;;;;5036573;28;20094;-84
2022/06/22 14:32:22;;;;;;;2.55;1.35;;;;;;;;;;5053345;28;20121;-85
2022/06/22 14:35:15;;;;;;;5.85;1.60;;;;;;;;;;5037035;28;20135;-85
2022/06/22 14:37:50;;;;;;;4.55;1.70;;;;;;;;;;5053915;28;20557;-86
2022/06/22 14:40:19;;;;;;;3.50;1.50;;;;;;;;;;5037197;28;20043;-85
2022/06/22 14:42:50;;;;;;;7.07;1.88;;;;;;;;;;5036804;28;20576;-85
2022/06/22 14:45:28;;;;;;;5.57;3.30;;;;;;;;;;5019414;28;20040;-84
2022/06/22 14:48:02;;;;;;;5.68;3.03;;;;;;;;;;5035808;28;20127;-83
2022/06/22 14:50:35;;;;;;;4.07;2.05;;;;;;;;;;5020601;28;20058;-85
2022/06/22 14:53:32;;;;;;;3.97;2.25;;;;;;;;;;5037142;28;20051;-92
2022/06/22 14:56:26;;;;;;;3.80;1.20;;;;;;;;;;5024500;28;20035;-94
2022/06/22 14:59:12;;;;;;;3.00;1.52;;;;;;;;;;5021480;28;20033;-91
2022/06/22 15:01:51;;;;;;;4.70;1.33;;;;;;;;;;5054337;28;20048;-93
2022/06/22 15:04:38;;;;;;;4.05;1.40;;;;;;;;;;5021696;28;20044;-93
2022/06/22 15:07:15;;;;;;;3.92;1.35;;;;;;;;;;5021126;28;20086;-92
2022/06/22 15:10:10;;;;;;;3.08;1.40;;;;;;;;;;5021109;28;20563;-93
2022/06/22 15:15:41;;;;;;;3.28;1.00;;;;;;;;;;5054198;28;20123;-92
2022/06/22 15:18:49;;;;;;;6.80;1.50;;;;;;;;;;5038284;28;20025;-92
2022/06/22 15:21:23;;;;;;;5.35;1.60;;;;;;;;;;5024317;28;20043;-89
2022/06/22 15:24:12;;;;;;;4.60;1.23;;;;;;;;;;5024870;28;20028;-90
2022/06/22 15:26:39;;;;;;;4.32;1.52;;;;;;;;;;5024782;28;20044;-90
2022/06/22 15:29:19;;;;;;;5.57;1.40;;;;;;;;;;5024504;28;20039;-91
2022/06/22 15:31:57;;;;;;;2.47;1.27;;;;;;;;;;5024806;28;20075;-90
2022/06/22 15:34:33;;;;;;;2.60;1.23;;;;;;;;;;5024631;28;20157;-91
2022/06/22 15:37:29;;;;;;;2.60;1.40;;;;;;;;;;5040711;28;20502;-90
2022/06/22 15:39:55;;;;;;;2.00;0.88;;;;;;;;;;5040499;28;20028;-91
2022/06/22 15:42:46;;;;;;;2.88;1.10;;;;;;;;;;5040389;28;20033;-90
2022/06/22 15:45:36;;;;;;;7.07;1.55;;;;;;;;;;5035105;28;20102;-91
2022/06/22 15:48:13;;;;;;;8.40;1.20;;;;;;;;;;5024434;28;20415;-92
2022/06/22 15:50:50;;;;;;;2.53;1.02;;;;;;;;;;5024304;28;20036;-91
2022/06/22 15:53:25;;;;;;;3.60;1.40;;;;;;;;;;5042734;28;20039;-92
2022/06/22 15:56:27;;;;;;;3.22;1.08;;;;;;;;;;5060725;28;20410;-90
2022/06/22 15:59:08;;;;;;;6.20;3.47;;;;;;;;;;5043703;28;20028;-92
2022/06/22 16:01:47;;;;;;;4.18;2.58;;;;;;;;;;5043969;28;20052;-92
2022/06/22 16:04:32;;;;;;;5.97;2.85;;;;;;;;;;5043772;28;20028;-92
2022/06/22 16:07:11;;;;;;;6.00;3.03;;;;;;;;;;5043959;28;20024;-91
2022/06/22 16:10:07;;;;;;;7.93;3.10;;;;;;;;;;5043965;28;20040;-91
2022/06/22 16:16:20;;;;;;;6.20;2.42;;;;;;;;;;5064219;28;20120;-91
2022/06/22 16:19:23;;;;;;;4.70;2.40;;;;;;;;;;5029200;28;20032;-91
2022/06/22 16:22:13;;;;;;;5.18;2.13;;;;;;;;;;5059910;28;20036;-91
2022/06/22 16:25:01;;;;;;;4.88;2.13;;;;;;;;;;5043455;28;20044;-91
2022/06/22 16:27:53;;;;;;;5.75;2.80;;;;;;;;;;5046121;28;20032;-91
2022/06/22 16:30:58;;;;;;;4.35;1.65;;;;;;;;;;5028827;28;20044;-90